Time;durP1;ratioP1;P1;durP2;ratioP2;P2;SDS_P1;SDS_P2;PMS_P1;PMS_P2;Temp;Humidity;BMP_temperature;BMP_pressure;BME280_temperature;BME280_humidity;BME280_pressure;Samples;Min_cycle;Max_cycle;Signal;HPM_P1;HPM_P2
2023/12/25 00:00:15;;;;;;;246.55;142.98;;;8.00;1.00;;;;;;5051062;28;20136;-76
2023/12/25 00:02:43;;;;;;;249.20;149.40;;;7.90;1.00;;;;;;5024564;28;20041;-77
2023/12/25 00:05:12;;;;;;;221.93;130.55;;;7.90;1.00;;;;;;5028003;28;20037;-77
2023/12/25 00:07:39;;;;;;;247.60;147.30;;;7.70;99.90;;;;;;5024953;28;20156;-78
2023/12/25 00:10:08;;;;;;;251.25;143.98;;;7.70;1.00;;;;;;5051680;28;20052;-77
2023/12/25 00:12:37;;;;;;;243.35;134.77;;;7.70;1.00;;;;;;5034761;28;20087;-78
2023/12/25 00:15:07;;;;;;;243.38;131.15;;;7.90;99.90;;;;;;5034540;28;20052;-77
2023/12/25 00:17:35;;;;;;;239.05;129.80;;;8.00;99.90;;;;;;5034488;28;20056;-77
2023/12/25 00:20:05;;;;;;;218.70;121.63;;;8.00;1.00;;;;;;5051796;28;20060;-77
2023/12/25 00:22:36;;;;;;;204.48;114.85;;;8.10;99.90;;;;;;5041190;28;20041;-77
2023/12/25 00:25:04;;;;;;;208.07;114.70;;;8.10;55.70;;;;;;5055182;28;20053;-77
2023/12/25 00:27:33;;;;;;;207.43;114.68;;;8.10;1.00;;;;;;5052051;28;20385;-78
2023/12/25 00:30:00;;;;;;;194.77;107.22;;;8.20;1.00;;;;;;5035875;28;20049;-77
2023/12/25 00:32:30;;;;;;;188.27;105.80;;;8.20;1.00;;;;;;5042915;28;20950;-78
2023/12/25 00:34:57;;;;;;;185.63;105.95;;;8.20;99.90;;;;;;5056323;28;20028;-77
2023/12/25 00:37:25;;;;;;;181.30;100.45;;;8.10;99.90;;;;;;5036855;28;20041;-78
2023/12/25 00:39:52;;;;;;;156.18;86.55;;;8.10;99.90;;;;;;5040470;28;20294;-78
2023/12/25 00:42:20;;;;;;;162.63;91.30;;;8.20;99.90;;;;;;5061552;28;20049;-78
2023/12/25 00:44:48;;;;;;;134.82;75.15;;;8.20;99.90;;;;;;5048388;28;20045;-78
2023/12/25 00:47:16;;;;;;;135.63;78.55;;;7.90;99.90;;;;;;5047051;28;20057;-79
2023/12/25 00:49:45;;;;;;;137.93;76.60;;;7.80;99.90;;;;;;5041237;28;20095;-77
2023/12/25 00:52:15;;;;;;;149.93;85.43;;;7.80;99.90;;;;;;5048413;28;20037;-76
2023/12/25 00:54:42;;;;;;;180.85;97.43;;;7.80;1.00;;;;;;5033574;28;20041;-77
2023/12/25 00:57:10;;;;;;;187.93;104.57;;;7.90;99.90;;;;;;5047595;28;20049;-76
2023/12/25 00:59:38;;;;;;;178.90;100.55;;;7.90;1.00;;;;;;5049572;28;20052;-77
2023/12/25 01:02:06;;;;;;;191.13;105.50;;;7.90;1.00;;;;;;5049380;28;20095;-77
2023/12/25 01:04:38;;;;;;;201.85;112.80;;;8.00;1.00;;;;;;5049823;28;20076;-77
2023/12/25 01:07:07;;;;;;;184.68;98.68;;;7.90;1.00;;;;;;5032534;28;20052;-78
2023/12/25 01:09:35;;;;;;;187.75;103.03;;;7.80;1.00;;;;;;5033254;28;20056;-78
2023/12/25 01:12:03;;;;;;;183.38;101.32;;;7.90;99.90;;;;;;5034825;28;20491;-76
2023/12/25 01:14:31;;;;;;;184.25;101.57;;;7.90;99.90;;;;;;5033572;28;20536;-78
2023/12/25 01:17:00;;;;;;;180.45;100.20;;;8.00;1.00;;;;;;5033369;28;20175;-77
2023/12/25 01:19:28;;;;;;;186.68;100.63;;;8.00;1.00;;;;;;5034222;28;20052;-77
2023/12/25 01:21:56;;;;;;;184.80;102.65;;;8.00;1.00;;;;;;5046806;28;20049;-76
2023/12/25 01:24:25;;;;;;;172.93;95.97;;;8.10;1.00;;;;;;5064334;28;20045;-78
2023/12/25 01:26:53;;;;;;;171.82;93.85;;;7.90;24.10;;;;;;5028381;28;20041;-80
2023/12/25 01:29:20;;;;;;;155.02;88.60;;;7.70;15.00;;;;;;5056093;28;20045;-79
2023/12/25 01:31:49;;;;;;;131.38;73.80;;;7.70;1.00;;;;;;5057825;28;20232;-77
2023/12/25 01:34:17;;;;;;;114.15;67.43;;;7.80;1.00;;;;;;5056889;28;20025;-78
2023/12/25 01:36:44;;;;;;;105.28;62.55;;;7.70;1.00;;;;;;5035717;28;20049;-77
2023/12/25 01:39:13;;;;;;;92.60;55.40;;;7.80;99.90;;;;;;5035190;28;20389;-78
2023/12/25 01:41:42;;;;;;;109.35;66.72;;;7.80;99.90;;;;;;5043355;28;20049;-79
2023/12/25 01:44:10;;;;;;;130.35;79.65;;;7.80;99.90;;;;;;5051757;28;20044;-77
2023/12/25 01:46:38;;;;;;;133.80;82.30;;;7.80;1.00;;;;;;5054154;28;20056;-77
2023/12/25 01:49:07;;;;;;;151.00;94.50;;;7.70;1.00;;;;;;5048565;28;20143;-75
2023/12/25 01:51:35;;;;;;;153.80;95.88;;;7.70;1.00;;;;;;5050813;28;20033;-76
2023/12/25 01:54:04;;;;;;;156.13;95.45;;;7.60;99.90;;;;;;5051416;28;20041;-77
2023/12/25 01:56:32;;;;;;;149.70;93.90;;;7.60;1.00;;;;;;5033689;28;20154;-77
2023/12/25 01:59:03;;;;;;;139.07;86.18;;;7.70;99.90;;;;;;5033895;28;20045;-77
2023/12/25 02:01:32;;;;;;;140.48;82.70;;;7.70;1.00;;;;;;5033953;28;20049;-77
2023/12/25 02:04:00;;;;;;;124.38;75.90;;;7.70;1.00;;;;;;5054602;28;20105;-77
2023/12/25 02:06:29;;;;;;;137.45;75.28;;;7.80;80.40;;;;;;5055685;28;20110;-77
2023/12/25 02:08:57;;;;;;;130.52;71.25;;;7.70;99.90;;;;;;5058247;28;20049;-77
2023/12/25 02:11:25;;;;;;;133.82;73.93;;;7.70;1.00;;;;;;5058669;28;20045;-78
2023/12/25 02:13:55;;;;;;;134.52;70.30;;;7.60;1.00;;;;;;5054464;28;20140;-78
2023/12/25 02:16:24;;;;;;;126.22;69.53;;;7.60;1.00;;;;;;5058743;28;20100;-77
2023/12/25 02:18:53;;;;;;;131.00;71.38;;;7.30;1.00;;;;;;5059381;28;20113;-77
2023/12/25 02:21:21;;;;;;;138.40;74.78;;;7.30;1.00;;;;;;5067285;28;20052;-76
2023/12/25 02:23:55;;;;;;;138.18;75.32;;;7.20;1.00;;;;;;5074487;28;20041;-77
2023/12/25 02:26:25;;;;;;;133.05;71.95;;;7.10;1.00;;;;;;5037828;28;20048;-78
2023/12/25 02:28:52;;;;;;;121.53;67.72;;;7.10;33.80;;;;;;5054731;28;20041;-76
2023/12/25 02:31:19;;;;;;;120.93;67.40;;;7.10;1.00;;;;;;5036811;28;20047;-77
2023/12/25 02:33:46;;;;;;;133.55;73.45;;;7.00;1.00;;;;;;5052706;28;20175;-77
2023/12/25 02:36:14;;;;;;;127.65;71.40;;;7.00;95.90;;;;;;5036170;28;20213;-78
2023/12/25 02:38:42;;;;;;;125.57;70.82;;;7.00;99.90;;;;;;5036054;28;20048;-76
2023/12/25 02:41:10;;;;;;;127.55;70.40;;;7.10;99.90;;;;;;5036460;28;20412;-77
2023/12/25 02:43:39;;;;;;;131.43;71.22;;;7.10;74.60;;;;;;5037214;28;20045;-76
2023/12/25 02:46:07;;;;;;;120.28;68.18;;;7.00;1.00;;;;;;5035680;28;20048;-77
2023/12/25 02:48:35;;;;;;;128.23;71.43;;;7.00;1.00;;;;;;5038025;28;20124;-77
2023/12/25 02:51:02;;;;;;;131.80;73.85;;;7.00;1.00;;;;;;5054812;28;20072;-76
2023/12/25 02:53:31;;;;;;;119.75;68.45;;;6.80;1.00;;;;;;5053122;28;20049;-77
2023/12/25 02:56:00;;;;;;;120.20;68.72;;;6.80;1.00;;;;;;5050028;28;20080;-77
2023/12/25 02:58:28;;;;;;;112.75;63.67;;;6.80;99.90;;;;;;5053282;28;20068;-77
2023/12/25 03:00:57;;;;;;;110.03;65.30;;;6.80;99.90;;;;;;5053701;28;20076;-76
2023/12/25 03:03:24;;;;;;;112.82;70.38;;;6.70;99.90;;;;;;5054012;28;20047;-76
2023/12/25 03:05:52;;;;;;;117.10;71.82;;;6.60;99.90;;;;;;5036118;28;20045;-77
2023/12/25 03:08:19;;;;;;;109.68;67.90;;;6.50;65.60;;;;;;5030203;28;20116;-76
2023/12/25 03:10:47;;;;;;;109.25;65.80;;;6.50;1.00;;;;;;5025215;28;20072;-76
2023/12/25 03:13:14;;;;;;;103.78;67.50;;;6.50;1.00;;;;;;5039115;28;20044;-76
2023/12/25 03:15:42;;;;;;;107.68;67.38;;;6.50;1.00;;;;;;5046810;28;20056;-77
2023/12/25 03:18:11;;;;;;;115.25;69.63;;;6.60;1.00;;;;;;5045389;28;20100;-76
2023/12/25 03:20:39;;;;;;;105.78;64.32;;;6.60;1.00;;;;;;5054118;28;20661;-76
2023/12/25 03:23:06;;;;;;;79.45;48.20;;;6.60;1.00;;;;;;5027094;28;20041;-76
2023/12/25 03:25:34;;;;;;;69.82;41.72;;;6.60;1.00;;;;;;5050686;28;20164;-77
2023/12/25 03:28:01;;;;;;;74.20;43.70;;;6.70;1.00;;;;;;5042340;28;20050;-78
2023/12/25 03:30:29;;;;;;;83.07;49.28;;;6.70;99.90;;;;;;5044657;28;20053;-76
2023/12/25 03:32:57;;;;;;;72.88;45.53;;;6.70;99.90;;;;;;5024459;28;20046;-77
2023/12/25 03:35:26;;;;;;;77.10;46.28;;;6.60;1.00;;;;;;5024449;28;20131;-76
2023/12/25 03:37:54;;;;;;;72.47;42.03;;;6.50;1.00;;;;;;5047554;28;20382;-77
2023/12/25 03:40:21;;;;;;;77.95;43.83;;;6.40;1.00;;;;;;5026039;28;20049;-77
2023/12/25 03:42:49;;;;;;;73.55;41.67;;;6.50;1.00;;;;;;5022138;28;20050;-78
2023/12/25 03:45:17;;;;;;;74.03;42.55;;;6.60;1.00;;;;;;5048360;28;20054;-77
2023/12/25 03:47:44;;;;;;;78.35;42.42;;;6.60;1.00;;;;;;5023006;28;20068;-76
2023/12/25 03:50:12;;;;;;;70.32;37.75;;;6.70;99.90;;;;;;5042007;28;20487;-78
2023/12/25 03:52:41;;;;;;;75.20;41.08;;;6.60;99.90;;;;;;5044588;28;20040;-77
2023/12/25 03:55:09;;;;;;;74.97;42.63;;;6.60;1.00;;;;;;5021912;28;20045;-78
2023/12/25 03:57:37;;;;;;;81.05;42.92;;;6.70;99.90;;;;;;5040151;28;20073;-76
2023/12/25 04:00:05;;;;;;;78.45;44.63;;;6.70;99.90;;;;;;5026587;28;20524;-77
2023/12/25 04:02:41;;;;;;;79.57;42.78;;;6.70;1.00;;;;;;5048052;23;20054;-81
2023/12/25 04:05:09;;;;;;;77.85;42.65;;;6.60;1.00;;;;;;5018393;28;20110;-82
2023/12/25 04:07:37;;;;;;;83.78;47.28;;;6.50;90.90;;;;;;5008880;28;20041;-82
2023/12/25 04:10:08;;;;;;;80.82;43.33;;;6.50;1.00;;;;;;5018085;28;20044;-80
2023/12/25 04:12:35;;;;;;;84.72;42.58;;;6.30;99.70;;;;;;5010827;28;20058;-80
2023/12/25 04:15:03;;;;;;;77.80;44.50;;;6.30;1.00;;;;;;5010964;28;20107;-83
2023/12/25 04:17:30;;;;;;;79.32;46.45;;;6.20;99.90;;;;;;5010096;28;20075;-81
2023/12/25 04:19:58;;;;;;;71.65;42.15;;;6.20;99.90;;;;;;5009361;28;20046;-81
2023/12/25 04:22:25;;;;;;;76.13;40.65;;;6.20;1.00;;;;;;5008406;28;20037;-81
2023/12/25 04:24:53;;;;;;;78.72;42.97;;;6.30;99.90;;;;;;5018881;28;20072;-82
2023/12/25 04:27:21;;;;;;;83.00;44.00;;;6.20;99.90;;;;;;5018514;28;20045;-80
2023/12/25 04:29:49;;;;;;;76.38;40.85;;;6.20;1.00;;;;;;5011652;28;20063;-80
2023/12/25 04:32:16;;;;;;;79.85;45.60;;;6.20;1.00;;;;;;5010170;28;20065;-80
2023/12/25 04:34:44;;;;;;;81.90;46.75;;;6.20;1.00;;;;;;5020046;28;20037;-81
2023/12/25 04:37:11;;;;;;;83.07;46.78;;;6.10;1.00;;;;;;5010622;28;20071;-80
2023/12/25 04:39:41;;;;;;;84.13;47.55;;;6.10;1.00;;;;;;5013356;28;20050;-81
2023/12/25 04:42:09;;;;;;;78.95;45.92;;;6.00;1.00;;;;;;5023550;28;20038;-80
2023/12/25 04:44:38;;;;;;;72.13;45.30;;;5.80;99.90;;;;;;5015252;28;20042;-80
2023/12/25 04:47:06;;;;;;;82.00;47.40;;;5.80;1.00;;;;;;5009917;28;20583;-81
2023/12/25 04:49:34;;;;;;;83.05;46.17;;;5.90;1.00;;;;;;5019866;28;20033;-80
2023/12/25 04:52:01;;;;;;;75.13;45.40;;;5.90;1.00;;;;;;5009638;28;20521;-81
2023/12/25 04:54:29;;;;;;;78.05;45.80;;;5.90;1.00;;;;;;5008895;28;20042;-81
2023/12/25 04:56:57;;;;;;;84.88;49.45;;;5.80;1.00;;;;;;5009188;28;20038;-79
2023/12/25 04:59:24;;;;;;;79.75;48.95;;;5.70;1.00;;;;;;5019698;28;20111;-80
2023/12/25 05:01:54;;;;;;;82.65;49.65;;;5.60;1.00;;;;;;5009697;28;20550;-82
2023/12/25 05:04:22;;;;;;;79.95;49.17;;;5.70;16.00;;;;;;5022718;28;20052;-79
2023/12/25 05:06:49;;;;;;;88.90;51.67;;;5.70;1.00;;;;;;5044550;28;20034;-81
2023/12/25 05:09:17;;;;;;;79.72;47.97;;;5.60;1.00;;;;;;5024971;28;20079;-79
2023/12/25 05:11:44;;;;;;;79.80;50.15;;;5.60;1.00;;;;;;5030558;28;20506;-80
2023/12/25 05:14:11;;;;;;;77.30;47.28;;;5.60;1.00;;;;;;5048045;28;20048;-80
2023/12/25 05:16:39;;;;;;;83.60;48.30;;;5.60;1.00;;;;;;5043632;28;20037;-81
2023/12/25 05:19:10;;;;;;;86.32;49.13;;;5.70;1.00;;;;;;5020423;28;20056;-81
2023/12/25 05:21:37;;;;;;;75.70;45.75;;;5.60;1.00;;;;;;5038161;28;20045;-81
2023/12/25 05:24:05;;;;;;;88.18;54.55;;;5.60;1.00;;;;;;5039768;28;20577;-81
2023/12/25 05:26:32;;;;;;;89.03;52.08;;;5.60;1.00;;;;;;5036972;28;20564;-80
2023/12/25 05:29:00;;;;;;;79.57;45.97;;;5.60;1.00;;;;;;5038965;28;20037;-81
2023/12/25 05:31:27;;;;;;;90.70;49.63;;;5.70;1.00;;;;;;5037865;28;20489;-81
2023/12/25 05:33:55;;;;;;;86.15;50.17;;;5.70;1.00;;;;;;5038524;28;20171;-81
2023/12/25 05:36:23;;;;;;;85.85;49.55;;;5.70;1.00;;;;;;5038083;28;20378;-80
2023/12/25 05:38:52;;;;;;;73.32;36.65;;;5.80;1.00;;;;;;5041731;28;20041;-79
2023/12/25 05:41:19;;;;;;;78.45;44.40;;;5.80;1.00;;;;;;5043925;28;20044;-82
2023/12/25 05:43:47;;;;;;;80.45;43.00;;;5.80;99.90;;;;;;5041637;28;20099;-81
2023/12/25 05:46:14;;;;;;;70.70;41.78;;;5.70;99.90;;;;;;5041694;28;20401;-83
2023/12/25 05:48:41;;;;;;;83.38;44.97;;;5.70;45.90;;;;;;5024129;28;20373;-82
2023/12/25 05:51:09;;;;;;;79.55;43.42;;;5.70;92.20;;;;;;5041472;28;20033;-81
2023/12/25 05:53:38;;;;;;;71.57;40.45;;;5.60;99.90;;;;;;5041462;28;20064;-81
2023/12/25 05:56:05;;;;;;;66.63;38.40;;;5.70;99.90;;;;;;5039622;28;20041;-80
2023/12/25 05:58:33;;;;;;;72.70;39.50;;;5.60;1.00;;;;;;5041579;28;20476;-80
2023/12/25 06:01:02;;;;;;;76.70;40.28;;;5.70;99.90;;;;;;5041860;28;20052;-80
2023/12/25 06:03:30;;;;;;;78.25;41.83;;;5.70;1.00;;;;;;5049606;28;20076;-80
2023/12/25 06:05:58;;;;;;;84.80;45.67;;;5.50;1.00;;;;;;5035892;28;20052;-81
2023/12/25 06:08:26;;;;;;;84.80;46.63;;;5.50;1.00;;;;;;5043088;28;20504;-79
2023/12/25 06:10:53;;;;;;;84.05;47.20;;;5.40;1.00;;;;;;5043137;28;20124;-81
2023/12/25 06:13:21;;;;;;;97.63;54.35;;;5.30;99.90;;;;;;5042615;28;20042;-81
2023/12/25 06:15:48;;;;;;;97.15;54.28;;;5.40;1.00;;;;;;5040602;28;20044;-78
2023/12/25 06:18:16;;;;;;;115.18;57.00;;;5.40;1.00;;;;;;5041581;28;20499;-80
2023/12/25 06:20:44;;;;;;;96.88;54.28;;;5.50;1.00;;;;;;5041785;28;20044;-81
2023/12/25 06:23:11;;;;;;;96.65;54.78;;;5.60;99.90;;;;;;5040625;28;20473;-81
2023/12/25 06:25:39;;;;;;;110.10;71.95;;;5.60;1.00;;;;;;5042011;28;20060;-79
2023/12/25 06:28:08;;;;;;;108.15;68.30;;;5.50;1.00;;;;;;5041656;28;20507;-79
2023/12/25 06:30:35;;;;;;;117.50;69.85;;;5.50;1.00;;;;;;5042310;28;20033;-80
2023/12/25 06:33:02;;;;;;;104.25;64.10;;;5.50;1.00;;;;;;5024833;28;20075;-81
2023/12/25 06:35:29;;;;;;;94.70;57.35;;;5.50;1.00;;;;;;5043963;28;20068;-86
2023/12/25 06:37:56;;;;;;;113.75;70.97;;;5.40;1.00;;;;;;5023933;28;20055;-81
2023/12/25 06:40:24;;;;;;;119.00;73.68;;;5.40;1.00;;;;;;5042223;28;20041;-81
2023/12/25 06:42:51;;;;;;;86.97;54.90;;;5.20;99.90;;;;;;5041322;28;20045;-81
2023/12/25 06:45:20;;;;;;;123.93;74.40;;;5.10;76.40;;;;;;5041580;28;20041;-80
2023/12/25 06:47:47;;;;;;;146.15;84.50;;;5.20;1.00;;;;;;5039995;28;20076;-81
2023/12/25 06:50:15;;;;;;;124.22;75.18;;;5.20;1.00;;;;;;5039891;28;20103;-79
2023/12/25 06:52:43;;;;;;;116.65;71.75;;;5.30;1.00;;;;;;5041532;28;20045;-80
2023/12/25 06:55:11;;;;;;;128.63;75.78;;;5.40;1.00;;;;;;5022532;28;20053;-83
2023/12/25 06:57:38;;;;;;;144.13;79.05;;;5.40;1.00;;;;;;5040864;28;20070;-82
2023/12/25 07:00:07;;;;;;;142.10;84.95;;;5.50;1.00;;;;;;5042395;28;20048;-81
2023/12/25 07:02:35;;;;;;;129.40;77.05;;;5.50;99.90;;;;;;5041868;28;20489;-79
2023/12/25 07:05:04;;;;;;;129.07;75.85;;;5.60;1.00;;;;;;5041049;28;20064;-81
2023/12/25 07:07:31;;;;;;;118.93;69.80;;;5.60;1.00;;;;;;5030752;28;20045;-82
2023/12/25 07:09:59;;;;;;;114.30;63.00;;;5.70;99.90;;;;;;5047624;28;20037;-80
2023/12/25 07:12:26;;;;;;;108.65;64.05;;;5.70;1.00;;;;;;5030044;28;20038;-82
2023/12/25 07:14:54;;;;;;;118.32;67.07;;;5.70;99.90;;;;;;5041436;28;20049;-81
2023/12/25 07:17:21;;;;;;;135.18;75.88;;;5.70;1.00;;;;;;5023792;28;20655;-80
2023/12/25 07:19:50;;;;;;;127.10;72.47;;;5.60;1.00;;;;;;5041265;28;20073;-80
2023/12/25 07:22:17;;;;;;;121.00;72.75;;;5.50;99.90;;;;;;5040143;28;20036;-81
2023/12/25 07:24:45;;;;;;;113.07;68.53;;;5.50;1.00;;;;;;5041104;28;20492;-80
2023/12/25 07:27:12;;;;;;;123.63;65.88;;;5.60;1.00;;;;;;5039242;28;20466;-80
2023/12/25 07:29:39;;;;;;;122.68;71.00;;;5.70;1.00;;;;;;5039867;28;20459;-80
2023/12/25 07:32:07;;;;;;;121.40;72.95;;;5.90;99.90;;;;;;5043352;28;20041;-83
2023/12/25 07:34:35;;;;;;;139.73;76.97;;;6.10;1.00;;;;;;5040166;28;20053;-80
2023/12/25 07:37:04;;;;;;;145.85;79.63;;;6.20;99.90;;;;;;5039523;28;20069;-82
2023/12/25 07:39:32;;;;;;;153.02;83.18;;;6.40;99.90;;;;;;5039859;28;20076;-81
2023/12/25 07:41:59;;;;;;;136.85;75.13;;;6.40;1.00;;;;;;5040168;28;20041;-81
2023/12/25 07:44:28;;;;;;;136.05;78.70;;;6.60;99.90;;;;;;5041570;28;20041;-84
2023/12/25 07:46:55;;;;;;;126.22;68.47;;;6.70;99.90;;;;;;5031227;28;20483;-81
2023/12/25 07:49:23;;;;;;;105.65;59.92;;;6.60;99.90;;;;;;5040273;28;20489;-82
2023/12/25 07:51:50;;;;;;;136.13;77.72;;;6.70;94.80;;;;;;5041943;28;20045;-82
2023/12/25 07:54:19;;;;;;;107.00;55.35;;;6.80;9.00;;;;;;5040494;28;20209;-81
2023/12/25 07:56:46;;;;;;;99.32;56.45;;;7.00;1.00;;;;;;5040484;28;20069;-81
2023/12/25 07:59:14;;;;;;;104.95;56.22;;;7.10;99.90;;;;;;5038215;28;20041;-83
2023/12/25 08:01:41;;;;;;;111.97;63.80;;;7.30;1.00;;;;;;5037958;28;20044;-80
2023/12/25 08:04:08;;;;;;;109.22;62.65;;;7.50;45.50;;;;;;5042531;28;20052;-80
2023/12/25 08:06:36;;;;;;;98.80;59.75;;;7.60;1.00;;;;;;5037665;28;20064;-82
2023/12/25 08:09:04;;;;;;;106.82;61.65;;;7.60;1.00;;;;;;5039722;28;20037;-79
2023/12/25 08:11:35;;;;;;;107.70;61.15;;;7.70;1.00;;;;;;5040058;28;20124;-80
2023/12/25 08:14:02;;;;;;;130.80;74.78;;;7.70;99.90;;;;;;5039740;28;20051;-82
2023/12/25 08:16:29;;;;;;;135.05;76.05;;;7.80;99.90;;;;;;5038308;28;20033;-81
2023/12/25 08:18:57;;;;;;;117.32;67.95;;;7.90;99.90;;;;;;5040843;28;20055;-80
2023/12/25 08:21:24;;;;;;;130.52;76.90;;;8.00;1.00;;;;;;5044913;28;20132;-81
2023/12/25 08:23:51;;;;;;;137.70;76.78;;;8.00;1.00;;;;;;5045155;28;20044;-81
2023/12/25 08:26:19;;;;;;;126.30;73.43;;;8.10;1.00;;;;;;5042050;28;20128;-82
2023/12/25 08:28:52;;;;;;;129.35;75.47;;;8.10;1.00;;;;;;5038082;28;20041;-81
2023/12/25 08:31:20;;;;;;;127.18;74.90;;;8.20;1.00;;;;;;5039076;28;20049;-82
2023/12/25 08:33:48;;;;;;;116.75;71.97;;;8.30;1.00;;;;;;5036360;28;20508;-82
2023/12/25 08:36:15;;;;;;;126.85;71.85;;;8.40;1.00;;;;;;5022967;28;20052;-81
2023/12/25 08:38:43;;;;;;;77.30;41.72;;;8.50;1.00;;;;;;5042318;28;20048;-83
2023/12/25 08:41:10;;;;;;;84.18;49.25;;;8.60;46.50;;;;;;5039528;28;20072;-82
2023/12/25 08:43:37;;;;;;;90.50;50.58;;;8.70;1.00;;;;;;5038987;28;20555;-82
2023/12/25 08:46:06;;;;;;;95.47;54.75;;;8.90;1.00;;;;;;5030448;28;20044;-82
2023/12/25 08:48:34;;;;;;;89.95;56.25;;;9.00;99.90;;;;;;5053183;28;20045;-88
2023/12/25 08:51:02;;;;;;;90.82;50.25;;;9.20;99.90;;;;;;5034891;28;20052;-81
2023/12/25 08:53:29;;;;;;;93.80;51.63;;;9.20;99.90;;;;;;5056643;28;20056;-81
2023/12/25 08:55:58;;;;;;;79.88;44.53;;;9.30;96.40;;;;;;5058713;28;20547;-85
2023/12/25 08:58:25;;;;;;;81.60;43.08;;;9.50;1.00;;;;;;5047091;28;20110;-83
2023/12/25 09:00:53;;;;;;;85.25;45.00;;;9.60;1.00;;;;;;5046955;28;20130;-85
2023/12/25 09:03:22;;;;;;;84.40;47.72;;;9.70;1.00;;;;;;5040893;28;20045;-84
2023/12/25 09:05:49;;;;;;;82.15;44.63;;;9.80;1.00;;;;;;5037846;28;20047;-85
2023/12/25 09:08:17;;;;;;;88.43;50.67;;;10.00;1.00;;;;;;5040477;28;20052;-84
2023/12/25 09:10:44;;;;;;;88.88;51.80;;;10.10;1.00;;;;;;5040846;28;20128;-82
2023/12/25 09:13:11;;;;;;;95.75;50.80;;;10.20;1.00;;;;;;5040938;28;20037;-86
2023/12/25 09:15:39;;;;;;;85.00;48.58;;;10.30;1.00;;;;;;5024696;28;20489;-84
2023/12/25 09:18:06;;;;;;;85.30;48.75;;;10.50;1.00;;;;;;5043856;28;20041;-83
2023/12/25 09:20:35;;;;;;;91.35;51.45;;;10.60;99.90;;;;;;5042838;28;20056;-84
2023/12/25 09:23:03;;;;;;;103.35;60.03;;;10.70;99.90;;;;;;5041809;28;20044;-84
2023/12/25 09:25:30;;;;;;;113.82;62.83;;;10.80;99.90;;;;;;5042724;28;20073;-83
2023/12/25 09:27:57;;;;;;;107.53;63.92;;;10.90;99.90;;;;;;5041475;28;20048;-84
2023/12/25 09:30:25;;;;;;;105.10;60.63;;;11.00;99.90;;;;;;5024755;28;20060;-85
2023/12/25 09:32:52;;;;;;;88.25;51.13;;;11.10;99.90;;;;;;5042852;28;20065;-84
2023/12/25 09:35:21;;;;;;;92.50;57.20;;;11.30;99.90;;;;;;5041614;28;20041;-85
2023/12/25 09:37:50;;;;;;;90.68;55.72;;;11.50;99.90;;;;;;5043702;28;20037;-85
2023/12/25 09:40:17;;;;;;;88.10;54.10;;;11.70;99.90;;;;;;5043745;28;20481;-86
2023/12/25 09:42:45;;;;;;;101.50;57.22;;;11.80;99.90;;;;;;5044686;28;20476;-86
2023/12/25 09:45:14;;;;;;;100.75;59.63;;;11.90;99.90;;;;;;5019345;28;20048;-85
2023/12/25 09:47:43;;;;;;;72.22;45.88;;;12.00;99.90;;;;;;5033085;28;20071;-85
2023/12/25 09:50:11;;;;;;;76.05;43.10;;;12.20;34.50;;;;;;5025074;28;20045;-84
2023/12/25 09:52:39;;;;;;;87.25;51.65;;;12.40;1.00;;;;;;5044246;28;20049;-84
2023/12/25 09:55:09;;;;;;;84.95;52.88;;;12.50;1.00;;;;;;5044595;28;20050;-85
2023/12/25 09:57:37;;;;;;;93.38;55.65;;;12.60;1.00;;;;;;5044914;28;20072;-83
2023/12/25 10:00:07;;;;;;;91.05;54.30;;;12.80;1.00;;;;;;5042985;28;20045;-84
2023/12/25 10:02:37;;;;;;;97.18;55.35;;;13.00;1.00;;;;;;5044255;28;20542;-85
2023/12/25 10:05:06;;;;;;;92.35;55.55;;;13.20;1.00;;;;;;5028388;28;20503;-83
2023/12/25 10:07:34;;;;;;;88.55;53.25;;;13.40;1.00;;;;;;5040021;28;20072;-85
2023/12/25 10:10:05;;;;;;;83.47;51.13;;;13.50;1.00;;;;;;5023959;28;20400;-85
2023/12/25 10:12:33;;;;;;;79.53;48.28;;;13.60;1.00;;;;;;5042486;28;20037;-84
2023/12/25 10:15:01;;;;;;;87.10;47.88;;;13.70;1.00;;;;;;5043735;28;20044;-85
2023/12/25 10:17:28;;;;;;;77.32;43.35;;;13.80;1.00;;;;;;5041764;28;20049;-86
2023/12/25 10:19:56;;;;;;;67.78;37.33;;;13.90;1.00;;;;;;5043003;28;20045;-84
2023/12/25 10:22:34;;;;;;;56.35;31.13;;;14.10;1.00;;;;;;5042971;28;20045;-85
2023/12/25 10:25:09;;;;;;;40.88;22.30;;;14.30;1.00;;;;;;5042462;28;20124;-84
2023/12/25 10:27:39;;;;;;;44.17;25.38;;;14.50;1.00;;;;;;5043325;28;20045;-84
2023/12/25 10:30:17;;;;;;;48.13;29.67;;;14.70;1.00;;;;;;5044738;28;20049;-85
2023/12/25 10:32:44;;;;;;;32.42;17.67;;;14.80;1.00;;;;;;5034128;28;20052;-86
2023/12/25 10:35:13;;;;;;;23.30;12.55;;;14.80;1.00;;;;;;5035402;28;20080;-86
2023/12/25 10:37:42;;;;;;;24.05;11.25;;;14.90;1.00;;;;;;5050358;28;20052;-85
2023/12/25 10:40:25;;;;;;;35.25;16.25;;;14.90;1.00;;;;;;5044744;28;20393;-86
2023/12/25 10:42:55;;;;;;;25.20;13.10;;;15.10;1.00;;;;;;5049110;28;20131;-86
2023/12/25 10:45:24;;;;;;;24.52;12.63;;;15.20;1.00;;;;;;5048001;28;20113;-85
2023/12/25 10:47:52;;;;;;;24.80;13.52;;;15.30;1.00;;;;;;5030850;28;20144;-86
2023/12/25 10:50:21;;;;;;;26.73;14.20;;;15.40;1.00;;;;;;5042541;28;20049;-85
2023/12/25 10:52:51;;;;;;;27.50;14.18;;;15.50;1.00;;;;;;5033347;28;20041;-86
2023/12/25 10:55:34;;;;;;;29.17;15.13;;;15.60;1.00;;;;;;5031164;28;20454;-84
2023/12/25 10:58:04;;;;;;;26.75;14.73;;;15.70;1.00;;;;;;5034242;28;20080;-86
2023/12/25 11:00:33;;;;;;;30.42;15.82;;;15.80;1.00;;;;;;5044630;28;20049;-86
2023/12/25 11:03:03;;;;;;;32.38;16.13;;;15.90;1.00;;;;;;5035626;28;20057;-85
2023/12/25 11:05:31;;;;;;;26.17;15.13;;;15.90;1.00;;;;;;5026218;28;20053;-85
2023/12/25 11:07:59;;;;;;;30.00;16.10;;;15.90;1.00;;;;;;5043712;28;20135;-86
2023/12/25 11:10:28;;;;;;;32.60;16.33;;;16.10;1.00;;;;;;5042534;28;20033;-85
2023/12/25 11:12:57;;;;;;;31.05;16.25;;;16.10;1.00;;;;;;5046418;28;20045;-85
2023/12/25 11:15:27;;;;;;;33.25;16.63;;;16.20;1.00;;;;;;5034824;28;20025;-86
2023/12/25 11:17:55;;;;;;;35.15;17.30;;;16.20;1.00;;;;;;5022057;28;20116;-86
2023/12/25 11:20:24;;;;;;;36.10;18.42;;;16.30;1.00;;;;;;5024545;28;20045;-86
2023/12/25 11:22:55;;;;;;;38.97;17.38;;;16.30;1.00;;;;;;5037322;28;20113;-85
2023/12/25 11:25:24;;;;;;;37.35;16.90;;;16.40;1.00;;;;;;5032657;28;20052;-87
2023/12/25 11:27:52;;;;;;;33.17;17.30;;;16.60;1.00;;;;;;5033597;28;20055;-87
2023/12/25 11:30:23;;;;;;;38.78;18.20;;;16.60;1.00;;;;;;5023381;28;20041;-85
2023/12/25 11:32:52;;;;;;;29.02;16.67;;;16.70;1.00;;;;;;5027345;28;20041;-86
2023/12/25 11:35:28;;;;;;;26.00;14.18;;;16.80;1.00;;;;;;5027182;28;20540;-86
2023/12/25 11:38:10;;;;;;;;;;;16.70;1.00;;;;;;5048565;28;20041;-84
2023/12/25 11:40:40;;;;;;;20.05;10.93;;;16.80;1.00;;;;;;5017616;28;20019;-85
2023/12/25 11:43:09;;;;;;;24.83;12.93;;;16.90;1.00;;;;;;5046076;28;20041;-86
2023/12/25 11:45:43;;;;;;;19.52;11.80;;;16.90;1.00;;;;;;5030395;28;20136;-86
2023/12/25 11:48:12;;;;;;;44.95;25.95;;;17.00;1.00;;;;;;5027467;28;20059;-86
2023/12/25 11:50:39;;;;;;;29.02;15.23;;;17.10;1.00;;;;;;5045478;28;20037;-85
2023/12/25 11:53:06;;;;;;;25.67;14.18;;;17.20;1.00;;;;;;5057021;28;20055;-85
2023/12/25 11:55:35;;;;;;;30.80;17.77;;;17.20;1.00;;;;;;5013206;28;20435;-88
2023/12/25 11:58:04;;;;;;;28.95;16.05;;;17.30;1.00;;;;;;5029823;28;20115;-87
2023/12/25 12:00:33;;;;;;;25.10;15.85;;;17.30;1.00;;;;;;5031639;28;20048;-88
2023/12/25 12:03:01;;;;;;;22.90;13.80;;;17.30;1.00;;;;;;5031951;28;20611;-88
2023/12/25 12:05:31;;;;;;;26.75;15.23;;;17.30;1.00;;;;;;5009972;28;20081;-87
2023/12/25 12:07:58;;;;;;;25.70;15.18;;;17.30;1.00;;;;;;5015713;28;20103;-87
2023/12/25 12:10:26;;;;;;;26.95;14.82;;;17.30;1.00;;;;;;5029119;28;20049;-88
2023/12/25 12:12:53;;;;;;;29.83;15.77;;;17.40;1.00;;;;;;5029534;28;20069;-87
2023/12/25 12:15:25;;;;;;;26.20;14.63;;;17.40;1.00;;;;;;5019785;28;20083;-86
2023/12/25 12:17:52;;;;;;;25.35;14.65;;;17.50;1.00;;;;;;5055415;28;20071;-87
2023/12/25 12:20:20;;;;;;;25.50;13.70;;;17.60;1.00;;;;;;5047284;28;20114;-87
2023/12/25 12:22:49;;;;;;;30.77;16.30;;;17.60;1.00;;;;;;5044701;28;20051;-88
2023/12/25 12:25:18;;;;;;;32.70;18.55;;;17.70;1.00;;;;;;5042283;28;20447;-87
2023/12/25 12:27:45;;;;;;;31.38;16.45;;;17.70;1.00;;;;;;5045687;28;20124;-88
2023/12/25 12:30:14;;;;;;;32.28;16.75;;;17.70;1.00;;;;;;5026334;28;20113;-88
2023/12/25 12:32:42;;;;;;;33.67;17.25;;;17.80;1.00;;;;;;5032858;28;20037;-88
2023/12/25 12:35:10;;;;;;;37.38;18.48;;;17.80;1.00;;;;;;5053667;28;20044;-86
2023/12/25 12:37:38;;;;;;;34.33;18.45;;;17.80;1.00;;;;;;5059053;28;20038;-87
2023/12/25 12:40:08;;;;;;;30.60;17.52;;;17.80;1.00;;;;;;5058370;28;20041;-86